Time;durP1;ratioP1;P1;durP2;ratioP2;P2;SDS_P1;SDS_P2;PMS_P1;PMS_P2;Temp;Humidity;BMP_temperature;BMP_pressure;BME280_temperature;BME280_humidity;BME280_pressure;Samples;Min_cycle;Max_cycle;Signal;HPM_P1;HPM_P2
2023/03/04 00:08:33;;;;;;;37.10;21.00;;;;;;;-1.54;91.62;99347.69;436979;1253;146694;-67
2023/03/04 00:18:39;;;;;;;43.40;25.00;;;;;;;-1.60;92.83;99330.47;437095;1253;145304;-67
2023/03/04 00:28:46;;;;;;;47.60;25.30;;;;;;;-1.65;93.28;99333.63;434297;1253;146175;-68
2023/03/04 00:38:50;;;;;;;;;;;;;;;-1.67;93.66;99326.64;443448;1252;142285;-65
2023/03/04 00:48:56;;;;;;;30.60;18.70;;;;;;;-1.67;94.31;99310.16;437319;1256;128820;-66
2023/03/04 00:59:02;;;;;;;28.10;17.40;;;;;;;-1.70;94.56;99297.52;435260;1252;143752;-67
2023/03/04 01:09:08;;;;;;;29.00;18.30;;;;;;;-1.68;94.76;99279.11;437751;1253;142405;-66
2023/03/04 01:19:14;;;;;;;30.10;19.60;;;;;;;-1.66;94.90;99259.34;435572;1254;142430;-65
2023/03/04 01:29:20;;;;;;;28.70;18.10;;;;;;;-1.64;95.36;99244.55;435594;1253;141413;-66
2023/03/04 01:39:25;;;;;;;33.20;20.50;;;;;;;-1.55;95.56;99231.33;434602;1253;143009;-66
2023/03/04 01:49:31;;;;;;;26.50;16.40;;;;;;;-1.42;95.40;99212.87;437742;1253;141011;-66
2023/03/04 01:59:38;;;;;;;27.80;18.00;;;;;;;-1.29;95.49;99197.63;437459;1252;143156;-66
2023/03/04 02:09:44;;;;;;;25.50;17.30;;;;;;;-1.17;95.26;99181.23;437046;1253;143224;-65
2023/03/04 02:19:51;;;;;;;;;;;;;;;-1.08;94.89;99160.42;434970;1253;206718;-65
2023/03/04 02:29:57;;;;;;;23.20;15.30;;;;;;;-1.02;94.70;99137.27;438592;1253;186675;-65
2023/03/04 02:40:03;;;;;;;20.20;13.00;;;;;;;-0.92;94.44;99120.02;432692;1253;141854;-66
2023/03/04 02:50:11;;;;;;;19.50;14.10;;;;;;;-0.87;94.07;99104.60;435533;1253;147882;-66
2023/03/04 03:00:17;;;;;;;23.40;14.40;;;;;;;-0.82;93.95;99086.94;437623;1253;142749;-66
2023/03/04 03:10:23;;;;;;;23.40;15.00;;;;;;;-0.79;93.48;99070.19;432257;1253;146883;-66
2023/03/04 03:20:28;;;;;;;23.60;13.60;;;;;;;-0.79;93.27;99041.66;440486;1256;142320;-67
2023/03/04 03:30:34;;;;;;;22.70;14.30;;;;;;;-0.81;93.04;99016.08;434155;1252;142448;-67
2023/03/04 03:40:41;;;;;;;23.30;14.80;;;;;;;-0.81;92.94;99001.50;433193;1254;144341;-67
2023/03/04 03:50:46;;;;;;;21.90;16.10;;;;;;;-0.82;92.75;99012.69;436877;1253;151103;-67
2023/03/04 04:00:52;;;;;;;24.70;16.00;;;;;;;-0.77;92.41;99028.36;432222;1253;141843;-67
2023/03/04 04:11:01;;;;;;;20.60;15.50;;;;;;;-0.74;92.26;99040.31;435223;1253;142754;-67
2023/03/04 04:21:07;;;;;;;23.20;16.20;;;;;;;-0.71;91.99;99044.53;446671;1252;141950;-67
2023/03/04 04:31:13;;;;;;;19.70;14.60;;;;;;;-0.67;91.67;99041.86;449465;1252;145263;-67
2023/03/04 04:41:22;;;;;;;21.40;16.00;;;;;;;-0.63;91.39;99036.25;450360;1254;142652;-67
2023/03/04 04:51:28;;;;;;;16.40;12.30;;;;;;;-0.59;91.10;99044.39;450389;1256;144247;-67
2023/03/04 05:01:34;;;;;;;17.30;12.40;;;;;;;-0.57;90.89;99036.60;449532;1252;142693;-66
2023/03/04 05:11:40;;;;;;;21.10;13.00;;;;;;;-0.54;90.50;99036.02;450351;1256;143033;-67
2023/03/04 05:21:45;;;;;;;16.90;13.10;;;;;;;-0.54;90.41;99038.07;449646;1253;142702;-66
2023/03/04 05:31:51;;;;;;;17.60;12.20;;;;;;;-0.51;90.12;99043.34;450461;1254;143490;-67
2023/03/04 05:41:57;;;;;;;16.30;12.20;;;;;;;-0.49;90.02;99040.67;446120;1251;142760;-67
2023/03/04 05:52:02;;;;;;;18.10;11.50;;;;;;;-0.46;89.82;99038.37;449530;1253;143806;-70
2023/03/04 06:02:08;;;;;;;19.70;12.70;;;;;;;-0.44;89.61;99039.50;450394;1254;143000;-68
2023/03/04 06:12:14;;;;;;;18.50;13.30;;;;;;;-0.40;89.47;99027.02;450269;1252;142911;-66
2023/03/04 06:22:20;;;;;;;15.40;11.40;;;;;;;-0.38;89.30;99021.11;449523;1254;142236;-66
2023/03/04 06:32:25;;;;;;;24.20;14.10;;;;;;;-0.34;89.23;99019.48;450276;1252;143164;-67
2023/03/04 06:42:31;;;;;;;23.00;13.80;;;;;;;-0.33;89.15;99011.01;450313;1251;144531;-68
2023/03/04 06:52:37;;;;;;;21.30;15.10;;;;;;;-0.26;89.14;99005.48;449531;1251;143143;-66
2023/03/04 07:02:43;;;;;;;28.70;18.50;;;;;;;-0.16;89.21;99016.02;450304;1253;144101;-67
2023/03/04 07:12:48;;;;;;;20.50;14.30;;;;;;;-0.08;89.16;99019.56;449519;1256;151597;-67
2023/03/04 07:22:54;;;;;;;22.00;13.60;;;;;;;-0.00;88.95;99011.77;450327;1253;146318;-69
2023/03/04 07:33:00;;;;;;;24.00;15.70;;;;;;;0.09;89.04;98997.23;450249;1254;143993;-67
2023/03/04 07:43:06;;;;;;;19.90;13.00;;;;;;;0.19;88.94;98992.64;448982;1253;185869;-66
2023/03/04 07:53:11;;;;;;;21.90;17.40;;;;;;;0.23;88.92;98998.16;440711;1253;143018;-67
2023/03/04 08:03:17;;;;;;;17.30;12.40;;;;;;;0.30;88.80;98996.05;450283;1251;141818;-66
2023/03/04 08:13:23;;;;;;;20.50;13.90;;;;;;;0.39;88.73;98995.95;449495;1251;145362;-65
2023/03/04 08:23:30;;;;;;;23.20;14.90;;;;;;;0.50;88.61;98987.84;450181;1253;144145;-65
2023/03/04 08:33:36;;;;;;;23.60;14.10;;;;;;;0.70;88.44;98981.20;450228;1253;142914;-66
2023/03/04 08:43:42;;;;;;;20.00;13.10;;;;;;;0.79;88.15;98977.79;449365;1254;146713;-66
2023/03/04 08:53:47;;;;;;;17.70;12.90;;;;;;;0.85;87.67;98972.74;450157;1253;143416;-66
2023/03/04 09:03:53;;;;;;;17.90;13.20;;;;;;;0.73;87.63;98971.45;449412;1251;148193;-67
2023/03/04 09:13:59;;;;;;;20.10;11.60;;;;;;;0.77;87.57;98970.78;449427;1251;145979;-67
2023/03/04 09:24:05;;;;;;;20.50;12.10;;;;;;;0.81;87.64;98963.59;450186;1252;202217;-67
2023/03/04 09:34:11;;;;;;;28.90;13.80;;;;;;;0.90;87.52;98957.44;449357;1252;143715;-67
2023/03/04 09:44:25;;;;;;;18.80;12.80;;;;;;;1.00;87.57;98944.34;450235;1251;142120;-66
2023/03/04 09:55:02;;;;;;;20.90;11.40;;;;;;;1.11;87.57;98935.48;449420;1252;141940;-65
2023/03/04 10:05:14;;;;;;;22.80;13.00;;;;;;;1.19;87.56;98921.92;449927;1252;142646;-66
2023/03/04 10:15:28;;;;;;;21.40;14.40;;;;;;;1.26;87.68;98916.16;450227;1252;143066;-66
2023/03/04 10:25:35;;;;;;;19.90;12.20;;;;;;;1.38;87.77;98902.27;449434;1252;142017;-66
2023/03/04 10:35:39;;;;;;;;;;;;;;;1.58;87.77;98888.09;450213;1252;143187;-65
2023/03/04 10:45:45;;;;;;;16.70;11.00;;;;;;;1.78;88.03;98875.06;450235;1252;129063;-65
2023/03/04 10:55:50;;;;;;;;;;;;;;;1.99;87.86;98860.42;449950;1252;211811;-66
2023/03/04 11:06:10;;;;;;;19.30;13.00;;;;;;;2.28;87.57;98855.44;450378;1252;129561;-66
2023/03/04 11:16:27;;;;;;;19.00;11.80;;;;;;;2.35;87.30;98846.87;449450;1252;142209;-66
2023/03/04 11:26:39;;;;;;;18.60;12.40;;;;;;;2.33;87.62;98849.89;450082;1252;143648;-67
2023/03/04 11:36:55;;;;;;;17.00;12.80;;;;;;;2.37;87.48;98848.69;450031;1252;142316;-66
2023/03/04 11:47:07;;;;;;;;;;;;;;;2.37;87.67;98836.08;450119;1252;211598;-67
2023/03/04 11:57:28;;;;;;;17.70;11.50;;;;;;;2.32;87.86;98827.63;450534;1252;128768;-67
2023/03/04 12:07:52;;;;;;;16.30;11.10;;;;;;;2.50;88.20;98807.71;449430;1252;142111;-67
2023/03/04 12:18:15;;;;;;;18.80;12.10;;;;;;;2.99;88.46;98784.45;448935;1252;145691;-67
2023/03/04 12:28:34;;;;;;;16.80;9.20;;;;;;;3.49;87.57;98781.48;449421;1252;145779;-67
2023/03/04 12:38:57;;;;;;;14.60;7.60;;;;;;;3.52;87.09;98779.08;450117;1252;143512;-67
2023/03/04 12:49:26;;;;;;;9.10;7.70;;;;;;;3.49;87.12;98774.73;449283;1252;142778;-64
2023/03/04 12:59:37;;;;;;;12.00;7.60;;;;;;;3.35;86.71;98765.19;450040;1252;142356;-67
2023/03/04 13:09:51;;;;;;;11.70;6.90;;;;;;;3.29;87.17;98764.41;450135;1252;142090;-67
2023/03/04 13:20:11;;;;;;;9.80;6.10;;;;;;;3.55;87.29;98747.95;441439;1252;207100;-66
2023/03/04 13:31:05;;;;;;;9.10;5.10;;;;;;;3.87;86.68;98742.58;443382;1252;143015;-66
2023/03/04 13:41:15;;;;;;;9.00;5.10;;;;;;;3.88;85.93;98734.41;447947;1252;142641;-66
2023/03/04 13:51:27;;;;;;;7.60;5.20;;;;;;;3.92;85.67;98722.26;450227;1252;141939;-66
2023/03/04 14:01:36;;;;;;;6.90;4.50;;;;;;;3.77;85.70;98717.09;449398;1252;142991;-66
2023/03/04 14:11:43;;;;;;;7.80;4.60;;;;;;;3.69;85.79;98712.98;450204;1251;141183;-65
2023/03/04 14:21:49;;;;;;;6.80;4.10;;;;;;;3.62;86.17;98715.40;447236;1252;143183;-65
2023/03/04 14:31:56;;;;;;;2.70;1.30;;;;;;;2.96;85.90;98778.70;445242;1252;142841;-67
2023/03/04 14:42:03;;;;;;;;;;;;;;;1.78;86.26;98781.34;443068;1252;142051;-66
2023/03/04 14:52:22;;;;;;;2.80;1.90;;;;;;;1.24;87.10;98783.79;449728;1252;128862;-66
2023/03/04 15:02:32;;;;;;;4.20;1.50;;;;;;;1.05;87.23;98779.70;450140;1252;142886;-66
2023/03/04 15:12:38;;;;;;;4.10;1.90;;;;;;;1.04;87.30;98785.77;448424;1252;143603;-67
2023/03/04 15:33:14;;;;;;;4.80;2.50;;;;;;;1.12;87.73;98793.40;420817;1298;600200;-65
2023/03/04 15:43:22;;;;;;;3.00;2.00;;;;;;;1.05;87.83;98809.55;439537;1265;150747;-66
2023/03/04 15:53:32;;;;;;;3.40;2.50;;;;;;;1.07;87.79;98820.64;446811;1265;141388;-67
2023/03/04 16:03:38;;;;;;;4.60;2.00;;;;;;;0.91;87.16;98827.27;446472;1266;141970;-67
2023/03/04 16:13:44;;;;;;;5.70;3.00;;;;;;;0.79;87.19;98834.91;445734;1266;141394;-67
2023/03/04 16:23:51;;;;;;;3.30;2.20;;;;;;;0.58;87.31;98840.31;446500;1267;141269;-67
2023/03/04 16:33:57;;;;;;;6.10;2.90;;;;;;;0.25;87.69;98853.50;448552;1255;141762;-67
2023/03/04 16:44:03;;;;;;;5.30;3.30;;;;;;;-0.01;88.11;98867.94;444747;1255;140936;-67
2023/03/04 16:54:13;;;;;;;10.20;4.20;;;;;;;-0.04;88.73;98888.16;449158;1255;142126;-67
2023/03/04 17:04:19;;;;;;;11.70;4.70;;;;;;;-0.25;89.03;98903.27;448480;1255;141046;-67
2023/03/04 17:14:24;;;;;;;8.70;4.70;;;;;;;-0.33;89.73;98915.02;448915;1255;142201;-66
2023/03/04 17:24:31;;;;;;;6.80;3.20;;;;;;;-0.40;89.87;98916.61;449069;1255;141956;-66
2023/03/04 17:34:36;;;;;;;6.80;4.10;;;;;;;-0.71;89.75;98926.63;448322;1255;141595;-66
2023/03/04 17:44:43;;;;;;;7.00;4.70;;;;;;;-0.87;90.24;98936.02;446891;1255;141380;-66
2023/03/04 17:54:48;;;;;;;10.70;5.60;;;;;;;-0.94;90.61;98953.02;447898;1255;141405;-66
2023/03/04 18:04:54;;;;;;;6.60;3.60;;;;;;;-0.82;90.46;98955.61;449142;1255;141958;-67
2023/03/04 18:15:00;;;;;;;8.60;4.40;;;;;;;-0.70;88.93;98962.00;445028;1255;142154;-66
2023/03/04 18:25:09;;;;;;;13.00;5.20;;;;;;;-0.81;88.27;98967.27;448141;1255;141354;-67
2023/03/04 18:35:15;;;;;;;9.60;4.20;;;;;;;-0.93;87.87;98982.23;449111;1255;142580;-67
2023/03/04 18:45:21;;;;;;;13.40;7.30;;;;;;;-0.79;87.12;98988.38;448920;1255;142658;-67
2023/03/04 18:55:27;;;;;;;7.90;4.20;;;;;;;-0.62;86.23;99001.65;448118;1257;143554;-66
2023/03/04 19:05:34;;;;;;;9.20;6.00;;;;;;;-0.64;85.10;99014.45;448928;1255;141742;-66
2023/03/04 19:15:39;;;;;;;5.80;3.90;;;;;;;-0.69;83.97;99032.11;437893;1255;140538;-67
2023/03/04 19:25:46;;;;;;;6.10;3.60;;;;;;;-0.84;82.47;99042.29;443970;1255;212454;-66
2023/03/04 19:35:52;;;;;;;4.30;2.70;;;;;;;-1.17;80.95;99057.05;448906;1255;141101;-66
2023/03/04 19:45:58;;;;;;;6.70;4.00;;;;;;;-1.43;77.99;99074.11;441874;1255;143226;-67
2023/03/04 19:56:04;;;;;;;7.80;3.40;;;;;;;-1.59;75.86;99079.48;449069;1255;141673;-66
2023/03/04 20:06:10;;;;;;;8.60;4.40;;;;;;;-1.91;74.53;99088.23;442527;1257;143662;-66
2023/03/04 20:16:16;;;;;;;24.20;10.90;;;;;;;-2.25;74.20;99103.48;448056;1255;142510;-67
2023/03/04 20:26:22;;;;;;;20.90;10.10;;;;;;;-2.55;73.95;99107.30;448885;1256;142685;-67
2023/03/04 20:36:29;;;;;;;13.80;6.00;;;;;;;-2.80;74.13;99109.11;448975;1255;142700;-66
2023/03/04 20:46:39;;;;;;;8.60;4.10;;;;;;;-3.14;74.34;99103.14;448292;1256;143117;-66
2023/03/04 20:56:46;;;;;;;6.20;3.00;;;;;;;-3.55;75.08;99112.30;448287;1255;142034;-66
2023/03/04 21:06:52;;;;;;;10.30;4.40;;;;;;;-3.86;75.48;99111.88;448230;1256;186236;-68
2023/03/04 21:16:59;;;;;;;9.00;5.60;;;;;;;-4.11;75.67;99114.03;448995;1255;141712;-66
2023/03/04 21:27:06;;;;;;;9.10;4.90;;;;;;;-4.34;76.00;99112.09;448997;1256;142602;-66
2023/03/04 21:37:12;;;;;;;11.30;6.80;;;;;;;-4.56;76.64;99105.32;439030;1255;143291;-66
2023/03/04 21:47:18;;;;;;;19.20;9.40;;;;;;;-4.72;77.18;99108.38;444950;1257;141320;-67
2023/03/04 21:57:24;;;;;;;23.00;11.10;;;;;;;-4.91;78.06;99106.66;448918;1256;143415;-67
2023/03/04 22:07:30;;;;;;;25.50;13.10;;;;;;;-5.07;78.69;99109.87;448223;1255;142018;-66
2023/03/04 22:17:34;;;;;;;;;;;;;;;-5.21;79.09;99111.17;442350;1257;141828;-66
2023/03/04 22:27:40;;;;;;;23.60;12.50;;;;;;;-5.34;79.55;99117.05;447307;1256;128542;-66
2023/03/04 22:37:46;;;;;;;26.60;11.40;;;;;;;-5.50;79.89;99111.88;448691;1256;202846;-67
2023/03/04 22:47:53;;;;;;;25.30;12.60;;;;;;;-5.57;80.41;99119.76;449169;1254;200608;-66
2023/03/04 22:57:59;;;;;;;19.90;10.60;;;;;;;-5.68;80.60;99114.88;448502;1254;142865;-66
2023/03/04 23:08:05;;;;;;;22.90;10.60;;;;;;;-5.74;80.61;99115.42;449248;1254;143506;-66
2023/03/04 23:18:11;;;;;;;21.40;10.50;;;;;;;-5.85;80.45;99113.43;449258;1254;142169;-66
2023/03/04 23:28:16;;;;;;;20.70;10.20;;;;;;;-5.99;80.45;99115.55;448463;1254;143106;-64
2023/03/04 23:38:22;;;;;;;21.10;11.10;;;;;;;-6.11;80.40;99116.13;449216;1254;141116;-65
2023/03/04 23:48:28;;;;;;;15.30;8.60;;;;;;;-6.24;80.79;99113.29;446215;1257;142663;-66
2023/03/04 23:58:33;;;;;;;16.30;9.20;;;;;;;-6.36;80.67;99110.09;448408;1256;142050;-66
